createdAt,value
2023-05-22T00:03:05.767Z,91.71
2023-05-22T00:08:11.796Z,91.03
2023-05-22T00:13:13.635Z,90.47
2023-05-22T00:18:15.326Z,91.25
2023-05-22T00:23:17.296Z,91.70
2023-05-22T00:28:19.188Z,93.14
2023-05-22T00:33:20.991Z,92.97
2023-05-22T00:38:34.255Z,91.75
2023-05-22T00:43:36.224Z,92.49
2023-05-22T00:48:38.226Z,94.13
2023-05-22T00:53:40.599Z,96.92
2023-05-22T00:58:42.790Z,98.12
2023-05-22T01:03:45.964Z,96.40
2023-05-22T01:08:48.107Z,96.70
2023-05-22T01:14:14.717Z,97.46
2023-05-22T01:19:47.555Z,99.63
2023-05-22T01:25:18.907Z,100.00
2023-05-22T01:30:47.936Z,100.00
2023-05-22T01:35:56.079Z,100.00
2023-05-22T01:40:58.411Z,100.00
2023-05-22T01:46:01.882Z,100.00
2023-05-22T01:51:12.028Z,99.32
2023-05-22T01:56:18.193Z,99.94
2023-05-22T02:01:21.733Z,100.00
2023-05-22T02:06:26.110Z,100.00
2023-05-22T02:11:30.567Z,100.00
2023-05-22T02:16:32.370Z,100.00
2023-05-22T02:21:35.418Z,100.00
2023-05-22T02:26:37.752Z,100.00
2023-05-22T02:31:39.665Z,100.00
2023-05-22T02:36:41.378Z,100.00
2023-05-22T02:41:43.261Z,100.00
2023-05-22T02:46:45.787Z,100.00
2023-05-22T02:51:47.851Z,100.00
2023-05-22T02:56:49.843Z,100.00
2023-05-22T03:01:51.628Z,100.00
2023-05-22T03:06:53.402Z,100.00
2023-05-22T03:11:55.343Z,100.00
2023-05-22T03:16:58.930Z,100.00
2023-05-22T03:22:01.173Z,100.00
2023-05-22T03:27:04.480Z,100.00
2023-05-22T03:32:13.889Z,100.00
2023-05-22T03:37:15.639Z,100.00
2023-05-22T03:42:17.393Z,100.00
2023-05-22T03:47:19.900Z,100.00
2023-05-22T03:52:22.137Z,100.00
2023-05-22T03:57:23.870Z,100.00
2023-05-22T04:02:26.415Z,100.00
2023-05-22T04:07:32.676Z,100.00
2023-05-22T04:12:34.517Z,100.00
2023-05-22T04:17:41.506Z,100.00
2023-05-22T04:22:45.891Z,100.00
2023-05-22T04:27:50.758Z,100.00
2023-05-22T04:32:52.503Z,100.00
2023-05-22T04:37:54.257Z,99.15
2023-05-22T04:42:59.748Z,98.12
2023-05-22T04:48:02.603Z,96.68
2023-05-22T04:53:08.075Z,92.87
2023-05-22T04:58:10.355Z,94.37
2023-05-22T05:03:12.319Z,93.01
2023-05-22T05:08:14.272Z,92.70
2023-05-22T05:13:16.037Z,89.87
2023-05-22T05:18:20.890Z,88.69
2023-05-22T05:23:23.160Z,87.76
2023-05-22T05:28:26.247Z,87.10
2023-05-22T05:33:29.517Z,83.36
2023-05-22T05:38:39.594Z,82.87
2023-05-22T05:43:42.088Z,81.65
2023-05-22T05:48:45.346Z,78.19
2023-05-22T05:53:47.620Z,78.56
2023-05-22T05:58:49.732Z,77.01
2023-05-22T06:04:09.008Z,74.11
2023-05-22T06:09:12.769Z,71.99
2023-05-22T06:14:33.436Z,71.20
2023-05-22T06:19:35.756Z,68.84
2023-05-22T06:24:37.746Z,66.84
2023-05-22T06:29:46.151Z,64.81
2023-05-22T06:34:49.654Z,62.42
2023-05-22T06:39:54.622Z,59.32
2023-05-22T06:45:19.953Z,61.79
2023-05-22T06:50:42.068Z,60.77
2023-05-22T06:55:43.839Z,58.23
2023-05-22T07:00:52.052Z,58.02
2023-05-22T07:05:59.622Z,56.87
2023-05-22T07:11:02.216Z,53.13
2023-05-22T07:16:04.535Z,52.14
2023-05-22T07:21:06.849Z,49.99
2023-05-22T07:26:09.831Z,48.96
2023-05-22T07:31:17.357Z,49.77
2023-05-22T07:36:21.089Z,46.11
2023-05-22T07:41:24.196Z,48.15
2023-05-22T07:46:26.196Z,45.84
2023-05-22T07:51:44.919Z,45.08
2023-05-22T07:56:47.746Z,44.23
2023-05-22T08:01:51.907Z,45.87
2023-05-22T08:06:53.674Z,45.48
2023-05-22T08:11:55.363Z,44.62
2023-05-22T08:16:59.082Z,45.87
2023-05-22T08:22:01.117Z,44.35
2023-05-22T08:27:04.838Z,43.10
2023-05-22T08:32:06.878Z,40.89
2023-05-22T08:37:09.476Z,39.40
2023-05-22T08:42:11.240Z,39.10
2023-05-22T08:47:14.123Z,37.96
2023-05-22T08:52:41.460Z,39.05
2023-05-22T08:57:43.340Z,38.97
2023-05-22T09:02:46.633Z,38.97
2023-05-22T09:07:49.035Z,38.96
2023-05-22T09:13:08.992Z,36.70
2023-05-22T09:18:14.336Z,34.64
2023-05-22T09:23:18.011Z,33.91
2023-05-22T09:28:20.517Z,36.11
2023-05-22T09:33:23.263Z,35.00
2023-05-22T09:38:29.881Z,35.90
2023-05-22T09:43:33.728Z,36.75
2023-05-22T09:48:38.409Z,35.04
2023-05-22T09:53:43.291Z,37.64
2023-05-22T09:58:46.806Z,38.41
2023-05-22T10:03:52.914Z,38.38
2023-05-22T10:09:01.815Z,38.53
2023-05-22T10:14:05.125Z,38.24
2023-05-22T10:19:08.345Z,37.30
2023-05-22T10:24:10.272Z,36.21
2023-05-22T10:29:15.624Z,39.37
2023-05-22T10:34:54.103Z,38.63
2023-05-22T10:40:08.969Z,37.73
2023-05-22T10:45:11.064Z,37.29
2023-05-22T10:50:13.165Z,37.54
2023-05-22T10:55:14.952Z,36.99
2023-05-22T11:00:18.742Z,36.86
2023-05-22T11:05:25.888Z,35.78
2023-05-22T11:10:47.859Z,36.67
2023-05-22T11:15:49.630Z,35.31
2023-05-22T11:20:53.972Z,35.54
2023-05-22T11:25:55.697Z,34.58
2023-05-22T11:30:57.680Z,34.28
2023-05-22T11:36:01.971Z,33.61
2023-05-22T11:41:03.719Z,34.45
2023-05-22T11:46:10.495Z,33.72
2023-05-22T11:51:12.651Z,35.47
2023-05-22T11:56:14.534Z,35.29
2023-05-22T12:01:16.460Z,33.54
2023-05-22T12:06:18.703Z,34.76
2023-05-22T12:11:21.651Z,35.03
2023-05-22T12:16:23.865Z,35.28
2023-05-22T12:21:27.130Z,34.16
2023-05-22T12:26:28.824Z,34.18
2023-05-22T12:31:37.565Z,35.99
2023-05-22T12:36:41.170Z,34.86
2023-05-22T12:41:43.943Z,34.32
2023-05-22T12:46:46.316Z,33.29
2023-05-22T12:51:55.861Z,35.09
2023-05-22T12:56:57.976Z,32.97
2023-05-22T13:02:04.198Z,34.75
2023-05-22T13:07:06.191Z,33.88
2023-05-22T13:12:10.310Z,34.16
2023-05-22T13:17:12.420Z,33.53
2023-05-22T13:22:15.652Z,36.02
2023-05-22T13:27:18.874Z,36.21
2023-05-22T13:32:21.115Z,35.19
2023-05-22T13:37:23.404Z,34.00
2023-05-22T13:42:25.442Z,34.60
2023-05-22T13:47:27.444Z,34.68
2023-05-22T13:52:29.406Z,35.09
2023-05-22T13:57:31.504Z,34.69
2023-05-22T14:02:33.388Z,34.93
2023-05-22T14:07:36.193Z,34.95
2023-05-22T14:12:38.002Z,36.16
2023-05-22T14:17:40.068Z,35.89
2023-05-22T14:22:56.067Z,35.85
2023-05-22T14:27:59.728Z,34.91
2023-05-22T14:33:01.608Z,35.77
2023-05-22T14:38:03.373Z,35.38
2023-05-22T14:43:05.160Z,34.84
2023-05-22T14:48:10.191Z,34.39
2023-05-22T14:53:13.078Z,35.00
2023-05-22T14:58:14.975Z,35.11
2023-05-22T15:03:19.026Z,34.45
2023-05-22T15:08:21.155Z,34.85
2023-05-22T15:13:22.899Z,34.07
2023-05-22T15:18:26.524Z,34.91
2023-05-22T15:23:28.615Z,33.47
2023-05-22T15:28:30.461Z,33.88
2023-05-22T15:33:34.013Z,34.00
2023-05-22T15:38:35.779Z,33.84
2023-05-22T15:43:38.089Z,34.53
2023-05-22T15:48:39.938Z,34.14
2023-05-22T15:53:44.495Z,35.30
2023-05-22T15:58:46.205Z,35.32
2023-05-22T16:03:48.026Z,35.67
2023-05-22T16:08:50.067Z,35.51
2023-05-22T16:13:51.853Z,36.31
2023-05-22T16:18:53.699Z,36.01
2023-05-22T16:23:55.708Z,36.34
2023-05-22T16:28:57.514Z,36.58
2023-05-22T16:33:59.233Z,36.92
2023-05-22T16:39:01.014Z,37.05
2023-05-22T16:44:03.084Z,37.29
2023-05-22T16:49:04.880Z,38.18
2023-05-22T16:54:06.642Z,37.71
2023-05-22T16:59:08.434Z,38.98
2023-05-22T17:04:14.382Z,39.62
2023-05-22T17:09:16.217Z,40.26
2023-05-22T17:14:17.934Z,40.78
2023-05-22T17:19:20.129Z,41.16
2023-05-22T17:24:22.025Z,41.97
2023-05-22T17:29:24.797Z,42.15
2023-05-22T17:34:28.250Z,41.87
2023-05-22T17:39:30.594Z,41.98
2023-05-22T17:44:32.375Z,42.24
2023-05-22T17:49:34.087Z,43.33
2023-05-22T17:54:35.884Z,43.55
2023-05-22T17:59:39.987Z,43.86
2023-05-22T18:04:42.220Z,44.36
2023-05-22T18:09:43.967Z,44.95
2023-05-22T18:14:46.778Z,44.91
2023-05-22T18:19:48.734Z,45.23
2023-05-22T18:24:50.676Z,46.13
2023-05-22T18:29:52.422Z,45.07
2023-05-22T18:34:54.418Z,45.51
2023-05-22T18:39:56.321Z,45.82
2023-05-22T18:44:58.814Z,45.88
2023-05-22T18:50:00.929Z,46.72
2023-05-22T18:55:02.813Z,47.35
2023-05-22T19:00:05.053Z,47.23
2023-05-22T19:05:07.475Z,47.15
2023-05-22T19:10:09.755Z,47.75
2023-05-22T19:15:11.708Z,49.02
2023-05-22T19:20:13.413Z,49.60
2023-05-22T19:25:15.168Z,48.63
2023-05-22T19:30:18.835Z,48.34
2023-05-22T19:35:20.760Z,48.72
2023-05-22T19:40:22.450Z,48.65
2023-05-22T19:45:25.981Z,48.63
2023-05-22T19:50:27.704Z,48.71
2023-05-22T19:55:30.580Z,49.58
2023-05-22T20:00:33.465Z,49.59
2023-05-22T20:05:35.177Z,49.31
2023-05-22T20:10:36.928Z,49.43
2023-05-22T20:15:41.099Z,49.58
2023-05-22T20:20:42.951Z,48.71
2023-05-22T20:25:44.760Z,48.49
2023-05-22T20:30:46.594Z,48.65
2023-05-22T20:35:48.862Z,48.83
2023-05-22T20:40:52.231Z,49.15
2023-05-22T20:45:54.180Z,49.74
2023-05-22T20:50:56.020Z,50.81
2023-05-22T20:55:58.026Z,50.01
2023-05-22T21:00:59.914Z,51.02
2023-05-22T21:06:01.745Z,52.33
2023-05-22T21:11:03.484Z,53.11
2023-05-22T21:16:05.717Z,53.54
2023-05-22T21:21:07.411Z,54.09
2023-05-22T21:26:09.352Z,56.04
2023-05-22T21:31:11.385Z,56.21
2023-05-22T21:36:13.020Z,57.77
2023-05-22T21:41:15.898Z,58.41
2023-05-22T21:46:17.730Z,60.53
2023-05-22T21:51:20.032Z,61.33
2023-05-22T21:56:21.948Z,60.82
2023-05-22T22:01:23.737Z,61.97
2023-05-22T22:06:25.461Z,61.72
2023-05-22T22:11:27.500Z,61.45
2023-05-22T22:16:29.219Z,63.08
2023-05-22T22:21:35.283Z,62.48
2023-05-22T22:26:36.967Z,63.44
2023-05-22T22:31:38.780Z,63.67
2023-05-22T22:36:40.499Z,66.41
2023-05-22T22:41:43.558Z,66.04
2023-05-22T22:46:45.799Z,64.41
2023-05-22T22:51:50.189Z,66.41
2023-05-22T22:56:52.117Z,65.80
2023-05-22T23:01:54.031Z,66.88
2023-05-22T23:06:57.560Z,64.28
2023-05-22T23:11:59.332Z,63.24
2023-05-22T23:17:02.713Z,64.45
2023-05-22T23:22:06.234Z,66.47
2023-05-22T23:27:07.910Z,67.71
2023-05-22T23:32:10.057Z,68.21
2023-05-22T23:37:12.633Z,67.55
2023-05-22T23:42:15.535Z,66.68
2023-05-22T23:47:18.688Z,66.04
2023-05-22T23:52:20.507Z,68.33
2023-05-22T23:57:22.213Z,68.78
